createdAt,value
2024-01-16T00:04:32.484Z,15.93
2024-01-16T00:09:38.365Z,16.88
2024-01-16T00:14:41.169Z,15.52
2024-01-16T00:19:43.812Z,16.80
2024-01-16T00:24:46.093Z,19.05
2024-01-16T00:29:48.501Z,19.08
2024-01-16T00:34:50.912Z,18.00
2024-01-16T00:39:53.435Z,19.92
2024-01-16T00:44:55.766Z,19.00
2024-01-16T00:49:58.046Z,17.83
2024-01-16T00:55:00.754Z,17.27
2024-01-16T01:00:03.123Z,17.05
2024-01-16T01:05:05.804Z,16.60
2024-01-16T01:10:08.669Z,17.20
2024-01-16T01:15:11.982Z,17.30
2024-01-16T01:20:14.533Z,17.38
2024-01-16T01:25:17.207Z,17.33
2024-01-16T01:30:19.756Z,16.45
2024-01-16T01:35:22.177Z,16.52
2024-01-16T01:40:24.429Z,16.45
2024-01-16T01:45:26.883Z,14.98
2024-01-16T01:50:29.380Z,15.77
2024-01-16T01:55:32.209Z,16.35
2024-01-16T02:00:35.271Z,15.75
2024-01-16T02:05:40.432Z,14.20
2024-01-16T02:10:47.436Z,15.90
2024-01-16T02:15:49.585Z,15.85
2024-01-16T02:20:52.071Z,16.55
2024-01-16T02:25:55.161Z,16.08
2024-01-16T02:30:58.077Z,14.73
2024-01-16T02:36:00.271Z,14.90
2024-01-16T02:41:02.517Z,16.20
2024-01-16T02:46:05.183Z,16.63
2024-01-16T02:51:07.357Z,16.65
2024-01-16T02:56:10.318Z,17.45
2024-01-16T03:01:12.919Z,18.02
2024-01-16T03:06:26.158Z,19.77
2024-01-16T03:11:30.109Z,19.20
2024-01-16T03:16:33.686Z,19.27
2024-01-16T03:21:35.912Z,19.77
2024-01-16T03:26:42.083Z,20.52
2024-01-16T03:31:44.488Z,17.60
2024-01-16T03:36:46.658Z,17.80
2024-01-16T03:41:48.845Z,16.52
2024-01-16T03:46:51.147Z,15.40
2024-01-16T03:51:53.485Z,15.07
2024-01-16T03:56:56.066Z,16.10
2024-01-16T04:01:59.006Z,16.05
2024-01-16T04:07:01.295Z,14.93
2024-01-16T04:12:04.154Z,15.43
2024-01-16T04:17:07.426Z,15.52
2024-01-16T04:22:10.633Z,15.27
2024-01-16T04:27:14.018Z,15.20
2024-01-16T04:32:16.230Z,14.38
2024-01-16T04:37:18.562Z,14.65
2024-01-16T04:42:20.864Z,15.85
2024-01-16T04:47:23.937Z,14.68
2024-01-16T04:52:26.304Z,15.50
2024-01-16T04:57:28.640Z,16.33
2024-01-16T05:02:30.871Z,17.38
2024-01-16T05:07:33.201Z,17.50
2024-01-16T05:12:35.401Z,17.27
2024-01-16T05:17:37.733Z,16.73
2024-01-16T05:22:40.545Z,19.00
2024-01-16T05:27:44.796Z,30.88
2024-01-16T05:32:47.323Z,28.90
2024-01-16T05:37:49.657Z,21.52
2024-01-16T05:42:51.895Z,21.67
2024-01-16T05:47:54.202Z,21.55
2024-01-16T05:52:56.423Z,20.30
2024-01-16T05:57:58.728Z,19.95
2024-01-16T06:03:01.168Z,18.83
2024-01-16T06:08:04.358Z,21.75
2024-01-16T06:13:06.560Z,22.77
2024-01-16T06:18:10.415Z,22.92
2024-01-16T06:23:12.689Z,21.00
2024-01-16T06:28:14.799Z,20.63
2024-01-16T06:33:17.058Z,18.98
2024-01-16T06:38:19.933Z,20.25
2024-01-16T06:43:22.179Z,20.48
2024-01-16T06:48:24.962Z,22.05
2024-01-16T06:53:27.426Z,23.00
2024-01-16T06:58:29.707Z,22.35
2024-01-16T07:03:31.968Z,20.95
2024-01-16T07:08:34.526Z,19.95
2024-01-16T07:13:36.778Z,19.23
2024-01-16T07:18:40.315Z,20.27
2024-01-16T07:23:42.866Z,20.27
2024-01-16T07:28:45.410Z,21.55
2024-01-16T07:33:47.744Z,21.38
2024-01-16T07:38:50.047Z,18.58
2024-01-16T07:43:52.281Z,20.63
2024-01-16T07:48:54.571Z,20.50
2024-01-16T07:54:08.120Z,21.83
2024-01-16T07:59:10.381Z,19.33
2024-01-16T08:04:12.622Z,18.88
2024-01-16T08:09:15.575Z,18.40
2024-01-16T08:14:17.726Z,16.45
2024-01-16T08:19:20.361Z,15.48
2024-01-16T08:24:23.110Z,15.73
2024-01-16T08:29:26.047Z,15.52
2024-01-16T08:34:28.445Z,15.82
2024-01-16T08:39:34.522Z,16.48
2024-01-16T08:44:36.720Z,17.13
2024-01-16T08:49:40.046Z,15.90
2024-01-16T08:54:42.330Z,14.60
2024-01-16T08:59:44.478Z,14.45
2024-01-16T09:04:47.133Z,12.57
2024-01-16T09:09:49.322Z,12.20
2024-01-16T09:14:51.609Z,10.23
2024-01-16T09:19:53.795Z,13.63
2024-01-16T09:24:55.932Z,12.27
2024-01-16T09:29:58.206Z,13.43
2024-01-16T09:35:02.553Z,13.45
2024-01-16T09:40:06.612Z,15.52
2024-01-16T09:45:10.734Z,14.20
2024-01-16T09:50:13.693Z,13.05
2024-01-16T09:55:16.493Z,13.02
2024-01-16T10:00:18.990Z,13.73
2024-01-16T10:05:22.432Z,13.18
2024-01-16T10:10:34.358Z,15.10
2024-01-16T10:15:41.176Z,15.25
2024-01-16T10:20:43.350Z,16.65
2024-01-16T10:25:45.478Z,16.92
2024-01-16T10:30:47.755Z,17.58
2024-01-16T10:35:50.114Z,15.60
2024-01-16T10:41:06.872Z,14.02
2024-01-16T10:46:13.617Z,15.07
2024-01-16T10:51:16.740Z,15.77
2024-01-16T10:56:20.731Z,16.25
2024-01-16T11:01:23.344Z,16.40
2024-01-16T11:06:25.959Z,16.65
2024-01-16T11:11:29.103Z,14.07
2024-01-16T11:16:33.985Z,12.48
2024-01-16T11:21:38.578Z,11.35
2024-01-16T11:26:44.626Z,10.20
2024-01-16T11:31:46.865Z,9.43
2024-01-16T11:36:56.360Z,9.38
2024-01-16T11:47:04.222Z,9.68
2024-01-16T11:52:06.662Z,9.05
2024-01-16T11:57:23.774Z,7.85
2024-01-16T12:02:49.270Z,6.95
2024-01-16T12:07:54.274Z,11.30
2024-01-16T12:13:05.569Z,9.68
2024-01-16T12:18:13.671Z,7.30
2024-01-16T12:23:23.428Z,7.30
2024-01-16T12:28:32.188Z,6.30
2024-01-16T12:33:36.055Z,8.15
2024-01-16T12:38:38.388Z,10.70
2024-01-16T12:43:41.194Z,7.10
2024-01-16T12:48:52.859Z,7.50
2024-01-16T12:54:15.628Z,6.70
2024-01-16T12:59:19.375Z,7.70
2024-01-16T13:04:22.956Z,8.05
2024-01-16T13:09:25.137Z,10.82
2024-01-16T13:14:27.856Z,9.63
2024-01-16T13:19:34.910Z,10.95
2024-01-16T13:24:37.522Z,16.98
2024-01-16T13:29:41.765Z,16.00
2024-01-16T13:34:50.213Z,25.25
2024-01-16T13:39:52.396Z,19.00
2024-01-16T13:44:55.857Z,19.98
2024-01-16T13:49:58.243Z,19.73
2024-01-16T13:55:00.761Z,20.17
2024-01-16T14:00:05.016Z,20.10
2024-01-16T14:05:07.416Z,19.17
2024-01-16T14:10:13.702Z,20.83
2024-01-16T14:15:21.169Z,20.95
2024-01-16T14:20:27.754Z,23.95
2024-01-16T14:25:30.823Z,22.67
2024-01-16T14:30:37.528Z,22.08
2024-01-16T14:35:40.127Z,23.75
2024-01-16T14:40:42.304Z,23.35
2024-01-16T14:45:44.534Z,20.77
2024-01-16T14:50:48.703Z,27.02
2024-01-16T14:55:53.305Z,34.08
2024-01-16T15:00:57.159Z,30.20
2024-01-16T15:05:59.451Z,31.30
2024-01-16T15:11:01.773Z,30.17
2024-01-16T15:16:04.300Z,32.55
2024-01-16T15:21:06.520Z,30.92
2024-01-16T15:26:08.781Z,37.63
2024-01-16T15:31:11.130Z,34.22
2024-01-16T15:36:13.341Z,33.72
2024-01-16T15:41:15.645Z,36.90
2024-01-16T15:46:18.047Z,32.63
2024-01-16T15:51:20.416Z,40.70
2024-01-16T15:56:22.828Z,37.72
2024-01-16T16:01:24.982Z,44.17
2024-01-16T16:06:27.262Z,37.15
2024-01-16T16:11:29.720Z,40.90
2024-01-16T16:16:34.896Z,46.17
2024-01-16T16:21:37.411Z,28.92
2024-01-16T16:26:45.096Z,25.55
2024-01-16T16:31:47.416Z,21.83
2024-01-16T16:36:49.608Z,13.90
2024-01-16T16:41:52.432Z,11.52
2024-01-16T16:46:54.706Z,12.98
2024-01-16T16:51:57.650Z,12.93
2024-01-16T16:57:00.000Z,13.25
2024-01-16T17:02:02.247Z,13.02
2024-01-16T17:07:04.965Z,12.43
2024-01-16T17:12:07.880Z,12.10
2024-01-16T17:17:11.100Z,15.55
2024-01-16T17:22:13.268Z,17.50
2024-01-16T17:27:15.469Z,21.05
2024-01-16T17:32:19.760Z,15.25
2024-01-16T17:37:21.961Z,14.85
2024-01-16T17:42:24.382Z,16.65
2024-01-16T17:47:27.355Z,20.27
2024-01-16T17:52:30.597Z,18.17
2024-01-16T17:57:32.960Z,18.17
2024-01-16T18:02:35.195Z,13.98
2024-01-16T18:07:39.050Z,14.05
2024-01-16T18:12:41.926Z,18.33
2024-01-16T18:17:46.360Z,19.27
2024-01-16T18:22:57.272Z,17.33
2024-01-16T18:28:00.868Z,17.30
2024-01-16T18:33:04.481Z,18.55
2024-01-16T18:38:09.010Z,14.23
2024-01-16T18:48:31.154Z,16.05
2024-01-16T18:53:33.469Z,16.40
2024-01-16T18:58:35.598Z,19.55
2024-01-16T19:03:37.836Z,17.23
2024-01-16T19:08:44.046Z,17.90
2024-01-16T19:13:46.395Z,20.85
2024-01-16T19:18:48.671Z,20.08
2024-01-16T19:23:51.660Z,18.45
2024-01-16T19:28:54.182Z,20.42
2024-01-16T19:33:56.606Z,21.00
2024-01-16T19:38:59.550Z,15.85
2024-01-16T19:44:02.116Z,19.73
2024-01-16T19:49:06.810Z,17.02
2024-01-16T19:54:09.613Z,14.57
2024-01-16T19:59:12.003Z,12.88
2024-01-16T20:04:14.238Z,16.20
2024-01-16T20:09:20.248Z,15.85
2024-01-16T20:14:22.824Z,15.45
2024-01-16T20:19:25.037Z,17.58
2024-01-16T20:24:30.508Z,14.75
2024-01-16T20:29:32.664Z,16.08
2024-01-16T20:34:35.646Z,14.23
2024-01-16T20:39:37.813Z,15.55
2024-01-16T20:44:40.096Z,15.90
2024-01-16T20:49:42.432Z,18.55
2024-01-16T20:54:44.660Z,15.30
2024-01-16T20:59:47.366Z,19.90
2024-01-16T21:04:49.614Z,21.30
2024-01-16T21:09:51.829Z,19.67
2024-01-16T21:14:53.988Z,17.83
2024-01-16T21:19:56.216Z,21.05
2024-01-16T21:24:58.455Z,20.63
2024-01-16T21:30:00.786Z,19.77
2024-01-16T21:35:03.069Z,21.83
2024-01-16T21:40:06.800Z,21.10
2024-01-16T21:45:09.297Z,28.73
2024-01-16T21:50:13.495Z,27.95
2024-01-16T21:55:16.151Z,31.63
2024-01-16T22:00:19.300Z,31.17
2024-01-16T22:05:21.859Z,30.10
2024-01-16T22:10:24.735Z,29.85
2024-01-16T22:15:27.276Z,25.52
2024-01-16T22:20:33.691Z,20.50
2024-01-16T22:25:36.024Z,19.48
2024-01-16T22:30:38.300Z,21.73
2024-01-16T22:35:40.508Z,21.45
2024-01-16T22:40:42.671Z,20.65
2024-01-16T22:45:46.674Z,16.75
2024-01-16T22:50:51.098Z,14.75
2024-01-16T22:55:53.340Z,17.92
2024-01-16T23:00:55.600Z,16.25
2024-01-16T23:05:58.251Z,16.48
2024-01-16T23:11:01.320Z,13.65
2024-01-16T23:16:04.115Z,13.85
2024-01-16T23:21:07.023Z,12.90
2024-01-16T23:26:11.473Z,13.07
2024-01-16T23:31:14.462Z,13.10
2024-01-16T23:36:17.708Z,13.63
2024-01-16T23:41:20.738Z,13.57
2024-01-16T23:46:22.891Z,13.43
2024-01-16T23:51:25.388Z,12.73
2024-01-16T23:56:27.635Z,15.23
